WEATHER DATA

YESTERDAY
Time Temp. Dewp. Hum. Wind dir Wind speed Wind gust Bar. 1h Prec. 24h Prec.
00:05 10.5 5.7 72 239 0.6 1.1 994.4 0.0000 0.0000
00:14 10.4 5.6 72 241 0.6 1.1 994.4 0.0000 0.0000
00:28 10.3 5.7 73 244 0.6 1.1 994.2 0.0000 0.0000
00:38 10.2 5.6 73 241 0.6 1.1 994.3 0.0000 0.0000
00:49 10.1 5.5 73 233 0.6 1.1 994.5 0.0000 0.0000
00:59 10.1 5.5 73 228 0.3 0.8 994.4 0.0000 0.0000
01:09 10.1 5.7 74 239 0.6 1.1 994.2 0.0000 0.0000
01:19 10 5.6 74 244 0.6 1.1 994 0.0000 0.0000
01:29 10 5.6 74 238 0.6 1.1 993.9 0.0000 0.0000
01:39 10 5.6 74 239 0.6 1.4 993.9 0.0000 0.0000
01:49 9.9 5.5 74 236 0.6 1.1 993.9 0.0000 0.0000
02:00 9.9 5.5 74 233 0.6 0.8 993.8 0.0000 0.0000
02:09 9.9 5.5 74 236 0.3 1.1 993.7 0.0000 0.0000
02:19 10 5.6 74 230 0.6 0.8 993.5 0.0000 0.0000
02:29 10 5.6 74 235 0.6 0.8 993.2 0.0000 0.0000
02:40 10 5.6 74 239 0.6 0.8 993.3 0.0000 0.0000
02:50 9.9 5.5 74 239 0.6 0.8 993.3 0.0000 0.0000
03:00 9.8 5.4 74 237 0.6 1.1 993.1 0.0000 0.0000
03:10 9.8 5.4 74 235 0.6 0.8 993.1 0.0000 0.0000
03:20 9.7 5.3 74 229 0.6 1.1 993.1 0.0000 0.0000
03:30 9.7 5.3 74 235 0.6 1.1 993.1 0.0000 0.0000
03:40 9.5 5.3 75 232 0.6 0.8 993.1 0.0000 0.0000
03:51 9.4 5.2 75 230 0.6 0.8 993 0.0000 0.0000
04:00 9.4 5.2 75 230 0.6 1.1 993.1 0.0000 0.0000
04:10 9.3 5.1 75 227 0.6 0.8 993.1 0.0000 0.0000
04:21 9.3 5.1 75 230 0.6 0.8 993.2 0.0000 0.0000
04:31 9.2 5 75 233 0.6 1.1 993.2 0.0000 0.0000
04:41 9 4.8 75 233 0.6 0.8 993.2 0.0000 0.0000
04:50 8.9 4.7 75 232 0.6 1.1 993.1 0.0000 0.0000
05:01 8.8 4.8 76 227 0.6 1.1 993.1 0.0000 0.0000
05:11 8.7 4.7 76 233 0.6 0.8 993.2 0.0000 0.0000
05:21 8.5 4.5 76 235 0.6 1.1 993 0.0000 0.0000
05:31 8.5 4.7 77 232 0.6 0.8 993 0.0000 0.0000
05:41 8.4 4.6 77 232 0.6 1.1 992.8 0.0000 0.0000
05:51 8.3 4.5 77 227 0.6 1.1 992.9 0.0000 0.0000
06:01 8.3 4.5 77 233 0.3 0.8 992.9 0.0000 0.0000
06:12 8.3 4.5 77 231 0.6 0.8 993 0.0000 0.0000
06:22 8.3 4.5 77 228 0.3 0.6 993.2 0.0000 0.0000
06:31 8.2 4.4 77 228 0.6 0.8 993.1 0.0000 0.0000
06:42 8.1 4.3 77 231 0.3 0.8 993.1 0.0000 0.0000
06:52 8 4 76 233 0.3 0.8 993.1 0.0000 0.0000
07:02 8 4 76 233 0.6 1.1 993.2 0.0000 0.0000
07:12 7.9 4.1 77 234 0.3 1.1 993.2 0.0000 0.0000
07:22 7.8 4 77 235 0.3 0.8 993.1 0.0000 0.0000
07:32 7.8 4 77 228 0.3 0.8 993.3 0.0000 0.0000
07:42 7.8 4 77 228 0.3 0.8 993.2 0.0000 0.0000
07:52 7.9 4.1 77 228 0.3 0.8 993.2 0.0000 0.0000
08:03 8.1 4.1 76 234 0.3 0.8 993.1 0.0000 0.0000
08:11 8.3 4.5 77 246 0.6 1.1 993.2 0.0000 0.0000
08:22 8.8 4.8 76 230 0.6 0.8 993.1 0.0000 0.0000
08:33 9.1 4.7 74 233 0.6 0.8 993.1 0.0000 0.0000
08:43 9.4 5 74 233 0.3 0.8 993.1 0.0000 0.0000
08:53 9.8 5.2 73 227 0.3 0.8 993.1 0.0000 0.0000
09:03 10.2 5.8 74 230 0.6 0.8 993 0.0000 0.0000
09:10 10.5 5.5 71 233 0.3 0.8 993.1 0.0000 0.0000
09:20 10.6 5.4 70 233 0.6 0.8 993 0.0000 0.0000
09:30 10.8 5.6 70 233 0.6 0.8 993 0.0000 0.0000
09:40 11.1 6 71 230 0.6 0.8 992.9 0.0000 0.0000
09:50 11.3 5.8 69 233 0.6 0.8 993 0.0000 0.0000
10:01 11.4 5.9 69 234 0.3 0.8 993 0.0000 0.0000
10:10 11.5 5.8 68 236 0.6 0.8 992.9 0.0000 0.0000
10:20 11.6 5.7 67 238 0.3 0.8 992.9 0.0000 0.0000
10:31 11.8 5.9 67 236 0.3 0.8 992.9 0.0000 0.0000
10:41 11.8 5.7 66 227 0.6 0.8 993 0.0000 0.0000
10:51 12 6.1 67 232 0.6 0.8 993 0.0000 0.0000
11:01 12.3 6.4 67 232 0.3 0.8 993 0.0000 0.0000
11:11 12.7 6.5 66 270 0.3 0.8 993 0.0000 0.0000
11:21 13.2 6.3 63 270 0.3 0.8 993 0.0000 0.0000
11:31 13.7 8.1 69 270 0.3 0.6 993 0.0000 0.0000
11:41 14.5 7.1 61 270 0.3 0.6 993 0.0000 0.0000
11:52 14.8 7.1 60 270 0.3 0.6 992.9 0.0000 0.0000
12:02 15.1 7.2 59 270 0.3 0.6 992.8 0.0000 0.0000
12:12 15.2 6.7 57 270 0.3 0.8 992.8 0.0000 0.0000
12:22 15.3 6.6 56 270 0.3 0.6 992.7 0.0000 0.0000
12:33 15.4 6.4 55 270 0.3 0.6 992.6 0.0000 0.0000
12:42 15.5 6.2 54 270 0.3 1.1 992.6 0.0000 0.0000
12:52 15.6 6.1 53 270 0.3 0.8 992.4 0.0000 0.0000
13:03 15.8 6.5 54 270 0.3 1.1 992.4 0.0000 0.0000
13:13 16.2 6.6 53 270 0.3 0.8 992.3 0.0000 0.0000
13:23 17 7.4 53 225 0.3 0.8 992.2 0.0000 0.0000
13:33 17.8 7 49 270 0.3 1.1 992.2 0.0000 0.0000
13:41 18.3 6.8 47 225 0.3 0.8 992.2 0.0000 0.0000
13:51 19.1 6.9 45 228 0.3 0.8 992.1 0.0000 0.0000
14:02 19.8 7.2 44 225 0.3 1.1 992.1 0.0000 0.0000
14:12 20.3 7 42 237 0.3 0.8 992.1 0.0000 0.0000
14:22 20.4 6.7 41 230 0.3 0.8 992.1 0.0000 0.0000
14:32 20.6 6.5 40 219 0.3 0.6 992 0.0000 0.0000
14:42 20.7 6.3 39 233 0.3 1.1 992 0.0000 0.0000
14:52 20.6 5.8 38 225 0.3 1.1 992 0.0000 0.0000
15:02 20.3 5.5 38 225 0.3 0.6 992.1 0.0000 0.0000
15:13 20.1 5.4 38 194 0.3 0.6 992.1 0.0000 0.0000
15:22 19.9 5.2 38 217 0.3 0.6 992.2 0.0000 0.0000
15:32 19.8 4.7 37 229 0.3 1.1 992.2 0.0000 0.0000
15:42 19.7 5 38 235 0.3 0.8 992.2 0.0000 0.0000
15:53 19.8 4.7 37 229 0.3 0.6 992.2 0.0000 0.0000
16:03 20 4.1 35 225 0.3 0.6 992.3 0.0000 0.0000
16:12 19.9 2.7 32 225 0.3 1.4 992.3 0.0000 0.0000
16:23 19.8 3.1 33 270 0.3 0.8 992.3 0.0000 0.0000
16:33 19.5 1.9 31 239 0.3 1.1 992.4 0.0000 0.0000
16:43 19 1.5 31 236 0.3 0.8 992.4 0.0000 0.0000
16:53 18.5 2.4 34 168 0.3 0.6 992.5 0.0000 0.0000
17:04 18.3 1.8 33 209 0.3 0.6 992.5 0.0000 0.0000
17:13 18.1 1.6 33 198 0.3 0.6 992.5 0.0000 0.0000
17:23 17.9 1.4 33 168 0.3 1.1 992.6 0.0000 0.0000
17:34 17.6 2.4 36 188 0.3 0.6 992.7 0.0000 0.0000
17:44 17.5 1.5 34 135 0.3 0.6 992.8 0.0000 0.0000
17:54 17.3 1.3 34 168 0.3 0.6 992.9 0.0000 0.0000
18:03 17.1 2.7 38 209 0.3 0.6 993 0.0000 0.0000
18:14 17 1.4 35 0 0.3 993 0.0000 0.0000
18:24 16.8 1.3 35 203 0.3 0.6 993.1 0.0000 0.0000
18:34 16.7 1.6 36 0 0.6 993.2 0.0000 0.0000
18:44 16.6 2.2 38 180 0.3 0.6 993.4 0.0000 0.0000
18:54 16.4 2.1 38 233 0.3 0.6 993.5 0.0000 0.0000
19:04 16.3 2.3 39 270 0.3 0.8 993.7 0.0000 0.0000
19:14 16.1 2.9 41 270 0.3 1.1 993.9 0.0000 0.0000
19:25 15.9 2.7 41 233 0.3 0.6 993.9 0.0000 0.0000
19:35 15.7 3.2 43 236 0.3 0.6 994 0.0000 0.0000
19:44 15.4 3.5 45 270 0.3 0.6 994.1 0.0000 0.0000
19:55 15.2 4 47 270 0.3 0.8 994.2 0.0000 0.0000
20:04 15 4.1 48 239 0.3 0.8 994.3 0.0000 0.0000
20:12 14.8 4.2 49 270 0.3 0.6 994.5 0.0000 0.0000
20:22 14.6 4.3 50 270 0.3 0.6 994.4 0.0000 0.0000
20:31 14.5 4.5 51 270 0.3 0.8 994.5 0.0000 0.0000
20:39 14.3 4.6 52 270 0.3 0.8 994.7 0.0000 0.0000
20:48 14.3 4.6 52 270 0.3 0.6 994.7 0.0000 0.0000
20:59 14.2 4.5 52 240 0.3 0.6 994.7 0.0000 0.0000
21:03 14.2 4.8 53 237 0.3 0.6 994.8 0.0000 0.0000
21:12 14.1 4.7 53 239 0.3 0.6 994.8 0.0000 0.0000
21:23 14.1 4.7 53 232 0.3 0.8 994.9 0.0000 0.0000
21:28 14.1 4.9 54 225 0.3 1.1 994.9 0.0000 0.0000
21:33 14.1 4.7 53 233 0.3 0.6 994.9 0.0000 0.0000
21:43 14.1 4.7 53 270 0.3 0.6 995.1 0.0000 0.0000
21:52 14 4.6 53 270 0.3 0.6 995.1 0.0000 0.0000
22:03 14 4.6 53 0 0.6 995.3 0.0000 0.0000
22:13 13.9 4.8 54 270 0.3 0.8 995.4 0.0000 0.0000
22:23 13.9 4.8 54 0 0.6 995.7 0.0000 0.0000
22:33 13.8 4.7 54 198 0.3 0.6 995.9 0.0000 0.0000
22:43 13.8 4.7 54 0 0.6 996 0.0000 0.0000
22:53 13.8 4.7 54 0 0.6 996.1 0.0000 0.0000
23:03 13.8 4.1 52 0 0.3 996.2 0.0000 0.0000
23:14 13.7 4.3 53 0 0.6 996.4 0.0000 0.0000
23:24 13.7 4.6 54 0 0.6 996.4 0.0000 0.0000
23:33 13.6 4.5 54 0 0.6 996.5 0.0000 0.0000
23:44 13.5 4.6 55 0 0.6 996.5 0.0000 0.0000
23:54 13.4 4.8 56 0 0.6 996.7 0.0000

DAY STATISTIC

2024-03-03
TEMPERATURE
AVERAGE
13.3
HIGH
20.7
14:42
LOW
7.8
07:22
PRESSURE
AVERAGE
993.4
HIGH
996.7
23:54
LOW
992.0
14:32
DEWPOINT
AVERAGE
4.8
HIGH
8.1
11:31
LOW
1.3
17:54
HUMIDITY
AVERAGE
59
HIGH
77
05:31
LOW
31
16:33
WIND SPEED
AVERAGE
0.4
HIGH
0.6
00:05
WIND GUST
AVERAGE
0.8
HIGH
1.4
01:39
WIND DIRECTION
PREVAILING
SW
66.2%
N
0.0
NE
0.0
E
0.0
SE
0.7
S
6.2
SW
66.2
W
18.6
NW
0.0
PRECIPITATION
RAIN HOUR
0.0
RAIN DAY
0.0
TEMPERATURE (°C)
LOW
7.8
HIGH
20.7
AVERAGE
13.3
PRESSURE (hpa)
LOW
992.0
HIGH
996.7
AVERAGE
993.4
DEVICE